Marina Lobra — IXVN — position and weather

sailwx.info

Track history (hours):
 
Tides and Currents Weather Stations Pressure Air Temp Water Temp Dewpoint Dewpoint Depression Visibility Wind Speed Wind Dir Waves Ship Positions

Marina Lobra

Last reported at 2015-Mar-04 11:33 UTC. Time now 2015-Mar-04 16:46 UTC.
Position N 40°50' E 014°17'.

Length 56 m; draft 2.4 m.

Type: Ship (hazmat cat C). MMSI: 247188300.

Date/timePositionNaut miles runAvg speedWind from/ knotsBaromVisibWave heightAir tempDewpointWater temp
2015-Mar-04 11:33N 40°50' E 014°17'0 0.1
2015-Mar-04 10:33N 40°50' E 014°17'0 0.0
2015-Mar-04 09:33N 40°50' E 014°17'0 0.0
2015-Mar-04 08:33N 40°50' E 014°17'0 0.0
2015-Mar-04 07:33N 40°50' E 014°17'0 0.0
2015-Mar-03 16:33N 40°50' E 014°17'0 0.0
2015-Mar-03 15:25N 40°50' E 014°17'0 0.1
2015-Mar-03 14:30N 40°50' E 014°17'0 0.0
2015-Mar-03 13:33N 40°50' E 014°17'0 0.0
2015-Mar-03 12:34N 40°50' E 014°17'0 0.0
2015-Mar-03 11:33N 40°50' E 014°17'0 0.0
2015-Mar-03 10:33N 40°50' E 014°17'1 1.4
2015-Mar-03 09:32N 40°50' E 014°15'0 0.1
2015-Mar-03 07:17N 40°50' E 014°16'0 0.4
2015-Mar-03 06:27N 40°51' E 014°16'0 0.0
2015-Mar-03 05:33N 40°51' E 014°16'0 0.0
2015-Mar-03 04:32N 40°51' E 014°16'0 0.0
2015-Mar-03 03:31N 40°51' E 014°16'0 0.0
2015-Mar-03 02:33N 40°51' E 014°16'0 0.0
2015-Mar-03 01:25N 40°51' E 014°16'0 0.0
2015-Mar-03 00:24N 40°51' E 014°16'0 0.0
2015-Mar-02 23:25N 40°51' E 014°16'0 0.0
2015-Mar-02 22:33N 40°51' E 014°16'0 0.0
2015-Mar-02 21:26N 40°51' E 014°16'0 0.0
2015-Mar-02 19:21N 40°51' E 014°16'0 0.0
2015-Mar-02 15:04N 40°51' E 014°16'0 0.2
2015-Mar-02 12:32N 40°50' E 014°15'1 1.5
2015-Mar-02 11:33N 40°50' E 014°17'0 0.0
2015-Mar-02 10:33N 40°50' E 014°17'0 0.0
2015-Mar-02 09:33N 40°50' E 014°17'1 0.1
2015-Mar-01 22:07N 40°51' E 014°16'0 0.0
2015-Mar-01 21:10N 40°51' E 014°16'0 0.0
2015-Mar-01 19:25N 40°51' E 014°16'0 0.0
2015-Mar-01 17:31N 40°51' E 014°16'0 0.0
2015-Mar-01 16:32N 40°51' E 014°16'0 0.0
2015-Mar-01 15:32N 40°51' E 014°16'0 0.0
2015-Mar-01 14:11N 40°51' E 014°16'0 0.0
2015-Mar-01 08:18N 40°51' E 014°16'0 0.0
2015-Mar-01 06:23N 40°51' E 014°16'0 0.0
2015-Mar-01 05:29N 40°51' E 014°16'0 0.0
2015-Mar-01 04:29N 40°51' E 014°16'0 0.0
2015-Mar-01 03:27N 40°51' E 014°16'0 0.0
2015-Mar-01 02:32N 40°51' E 014°16'0 0.0
2015-Mar-01 01:25N 40°51' E 014°16'0 0.0
2015-Feb-28 22:20N 40°51' E 014°16'0 0.0
2015-Feb-28 21:15N 40°51' E 014°16'0 0.0
2015-Feb-28 20:21N 40°51' E 014°16'0 0.0
2015-Feb-28 19:28N 40°51' E 014°16'0 0.0
2015-Feb-28 18:07N 40°51' E 014°16'0 0.0
2015-Feb-28 17:32N 40°51' E 014°16'0 0.0
2015-Feb-28 16:32N 40°51' E 014°16'0 0.0
2015-Feb-28 15:25N 40°51' E 014°16'1 0.2
2015-Feb-28 10:32N 40°50' E 014°17'0 0.4
2015-Feb-28 09:33N 40°50' E 014°18'0 0.0
2015-Feb-28 08:33N 40°50' E 014°18'0 0.0
2015-Feb-28 07:30N 40°50' E 014°18'0 0.0
2015-Feb-28 06:33N 40°50' E 014°18'2 0.1
2015-Feb-27 13:25N 40°50' E 014°15'1 1.4
2015-Feb-27 12:24N 40°50' E 014°17'0 0.0
2015-Feb-27 11:19N 40°50' E 014°17'0 0.0
2015-Feb-27 10:31N 40°50' E 014°17'0 0.0
2015-Feb-27 09:25N 40°50' E 014°17'1 1.7
2015-Feb-27 08:33N 40°50' E 014°16'0 0.0
2015-Feb-27 07:33N 40°50' E 014°15'0 0.0
2015-Feb-27 06:22N 40°50' E 014°15'0 0.1
2015-Feb-27 01:04N 40°51' E 014°16'0 0.0
2015-Feb-27 00:33N 40°51' E 014°16'0 0.0
2015-Feb-26 23:18N 40°51' E 014°16'1 0.1
2015-Feb-26 12:32N 40°50' E 014°17'0 0.2
2015-Feb-26 11:33N 40°50' E 014°17'0 0.0
2015-Feb-26 10:18N 40°50' E 014°17'0 0.2
2015-Feb-26 09:33N 40°50' E 014°17'1 0.6
2015-Feb-26 07:24N 40°50' E 014°16'0 0.1
2015-Feb-26 03:09N 40°51' E 014°16'0 0.0
2015-Feb-26 01:31N 40°51' E 014°16'0 0.0
2015-Feb-25 23:14N 40°51' E 014°16'0 0.0
2015-Feb-25 22:25N 40°51' E 014°16'0 0.0
2015-Feb-25 19:14N 40°51' E 014°16'0 0.0
2015-Feb-25 16:30N 40°51' E 014°16'1 0.8
2015-Feb-25 15:32N 40°50' E 014°17'0 0.4
2015-Feb-25 14:32N 40°50' E 014°17'0 0.0
2015-Feb-25 13:33N 40°50' E 014°17'0 0.0
2015-Feb-25 12:33N 40°50' E 014°17'0 0.0
2015-Feb-25 11:33N 40°50' E 014°17'0 0.0
2015-Feb-25 10:34N 40°50' E 014°17'0 0.0
2015-Feb-25 09:29N 40°50' E 014°17'0 0.0
2015-Feb-25 08:33N 40°50' E 014°17'0 0.0
2015-Feb-25 07:31N 40°50' E 014°17'1 0.5
2015-Feb-25 05:04N 40°51' E 014°16'0 0.0
2015-Feb-25 04:24N 40°51' E 014°16'0 0.0
2015-Feb-25 03:08N 40°51' E 014°16'0 0.0
2015-Feb-25 02:20N 40°51' E 014°16'0 0.0
2015-Feb-24 20:22N 40°51' E 014°16'2 0.1
2015-Feb-24 07:33N 40°49' E 014°17'6 6.2
2015-Feb-24 06:31N 40°43' E 014°17'6 6.0
2015-Feb-24 05:33N 40°37' E 014°15'4 4.1
2015-Feb-24 04:33N 40°33' E 014°14'0 0.0
2015-Feb-24 03:33N 40°33' E 014°14'0 0.0
2015-Feb-24 02:32N 40°33' E 014°14'0 0.0
2015-Feb-24 01:33N 40°33' E 014°14'0 0.0
2015-Feb-24 00:34N 40°33' E 014°14'0 0.0
2015-Feb-23 23:33N 40°33' E 014°14'0 0.0
2015-Feb-23 22:33N 40°33' E 014°14'0 0.0
2015-Feb-23 21:33N 40°33' E 014°14'0 0.0
2015-Feb-23 20:34N 40°33' E 014°14'5 4.6
2015-Feb-23 19:33N 40°38' E 014°15'5 5.4
2015-Feb-23 18:33N 40°43' E 014°17'5 5.5
2015-Feb-23 17:34N 40°49' E 014°18'1 1.2
2015-Feb-23 16:17N 40°50' E 014°17'0 0.0
2015-Feb-23 15:33N 40°50' E 014°17'0 0.0
2015-Feb-23 14:31N 40°50' E 014°17'0 0.0
2015-Feb-23 13:33N 40°50' E 014°17'0 0.0
2015-Feb-23 12:28N 40°50' E 014°17'0 0.0
2015-Feb-23 11:28N 40°50' E 014°17'0 0.0
2015-Feb-23 10:33N 40°50' E 014°17'0 0.1
2015-Feb-23 09:33N 40°50' E 014°17'0 0.0
2015-Feb-23 08:33N 40°50' E 014°17'0 0.0
2015-Feb-23 07:33N 40°50' E 014°17'  
Track history (hours):
 
Tides and Currents Weather Stations Pressure Air Temp Water Temp Dewpoint Dewpoint Depression Visibility Wind Speed Wind Dir Waves Ship Positions

Marina Lobra

Last reported at 2015-Mar-04 11:33 UTC. Time now 2015-Mar-04 16:46 UTC.
Position N 40°50' E 014°17'.

Length 56 m; draft 2.4 m.

Type: Ship (hazmat cat C). MMSI: 247188300.

Date/timePositionNaut miles runAvg speedWind from/ knotsBaromVisibWave heightAir tempDewpointWater temp
2015-Mar-04 11:33N 40°50' E 014°17'0 0.1
2015-Mar-04 10:33N 40°50' E 014°17'0 0.0
2015-Mar-04 09:33N 40°50' E 014°17'0 0.0
2015-Mar-04 08:33N 40°50' E 014°17'0 0.0
2015-Mar-04 07:33N 40°50' E 014°17'0 0.0
2015-Mar-03 16:33N 40°50' E 014°17'0 0.0
2015-Mar-03 15:25N 40°50' E 014°17'0 0.1
2015-Mar-03 14:30N 40°50' E 014°17'0 0.0
2015-Mar-03 13:33N 40°50' E 014°17'0 0.0
2015-Mar-03 12:34N 40°50' E 014°17'0 0.0
2015-Mar-03 11:33N 40°50' E 014°17'0 0.0
2015-Mar-03 10:33N 40°50' E 014°17'1 1.4
2015-Mar-03 09:32N 40°50' E 014°15'0 0.1
2015-Mar-03 07:17N 40°50' E 014°16'0 0.4
2015-Mar-03 06:27N 40°51' E 014°16'0 0.0
2015-Mar-03 05:33N 40°51' E 014°16'0 0.0
2015-Mar-03 04:32N 40°51' E 014°16'0 0.0
2015-Mar-03 03:31N 40°51' E 014°16'0 0.0
2015-Mar-03 02:33N 40°51' E 014°16'0 0.0
2015-Mar-03 01:25N 40°51' E 014°16'0 0.0
2015-Mar-03 00:24N 40°51' E 014°16'0 0.0
2015-Mar-02 23:25N 40°51' E 014°16'0 0.0
2015-Mar-02 22:33N 40°51' E 014°16'0 0.0
2015-Mar-02 21:26N 40°51' E 014°16'0 0.0
2015-Mar-02 19:21N 40°51' E 014°16'0 0.0
2015-Mar-02 15:04N 40°51' E 014°16'0 0.2
2015-Mar-02 12:32N 40°50' E 014°15'1 1.5
2015-Mar-02 11:33N 40°50' E 014°17'0 0.0
2015-Mar-02 10:33N 40°50' E 014°17'0 0.0
2015-Mar-02 09:33N 40°50' E 014°17'1 0.1
2015-Mar-01 22:07N 40°51' E 014°16'0 0.0
2015-Mar-01 21:10N 40°51' E 014°16'0 0.0
2015-Mar-01 19:25N 40°51' E 014°16'0 0.0
2015-Mar-01 17:31N 40°51' E 014°16'0 0.0
2015-Mar-01 16:32N 40°51' E 014°16'0 0.0
2015-Mar-01 15:32N 40°51' E 014°16'0 0.0
2015-Mar-01 14:11N 40°51' E 014°16'0 0.0
2015-Mar-01 08:18N 40°51' E 014°16'0 0.0
2015-Mar-01 06:23N 40°51' E 014°16'0 0.0
2015-Mar-01 05:29N 40°51' E 014°16'0 0.0
2015-Mar-01 04:29N 40°51' E 014°16'0 0.0
2015-Mar-01 03:27N 40°51' E 014°16'0 0.0
2015-Mar-01 02:32N 40°51' E 014°16'0 0.0
2015-Mar-01 01:25N 40°51' E 014°16'0 0.0
2015-Feb-28 22:20N 40°51' E 014°16'0 0.0
2015-Feb-28 21:15N 40°51' E 014°16'0 0.0
2015-Feb-28 20:21N 40°51' E 014°16'0 0.0
2015-Feb-28 19:28N 40°51' E 014°16'0 0.0
2015-Feb-28 18:07N 40°51' E 014°16'0 0.0
2015-Feb-28 17:32N 40°51' E 014°16'0 0.0
2015-Feb-28 16:32N 40°51' E 014°16'0 0.0
2015-Feb-28 15:25N 40°51' E 014°16'1 0.2
2015-Feb-28 10:32N 40°50' E 014°17'0 0.4
2015-Feb-28 09:33N 40°50' E 014°18'0 0.0
2015-Feb-28 08:33N 40°50' E 014°18'0 0.0
2015-Feb-28 07:30N 40°50' E 014°18'0 0.0
2015-Feb-28 06:33N 40°50' E 014°18'2 0.1
2015-Feb-27 13:25N 40°50' E 014°15'1 1.4
2015-Feb-27 12:24N 40°50' E 014°17'0 0.0
2015-Feb-27 11:19N 40°50' E 014°17'0 0.0
2015-Feb-27 10:31N 40°50' E 014°17'0 0.0
2015-Feb-27 09:25N 40°50' E 014°17'1 1.7
2015-Feb-27 08:33N 40°50' E 014°16'0 0.0
2015-Feb-27 07:33N 40°50' E 014°15'0 0.0
2015-Feb-27 06:22N 40°50' E 014°15'0 0.1
2015-Feb-27 01:04N 40°51' E 014°16'0 0.0
2015-Feb-27 00:33N 40°51' E 014°16'0 0.0
2015-Feb-26 23:18N 40°51' E 014°16'1 0.1
2015-Feb-26 12:32N 40°50' E 014°17'0 0.2
2015-Feb-26 11:33N 40°50' E 014°17'0 0.0
2015-Feb-26 10:18N 40°50' E 014°17'0 0.2
2015-Feb-26 09:33N 40°50' E 014°17'1 0.6
2015-Feb-26 07:24N 40°50' E 014°16'0 0.1
2015-Feb-26 03:09N 40°51' E 014°16'0 0.0
2015-Feb-26 01:31N 40°51' E 014°16'0 0.0
2015-Feb-25 23:14N 40°51' E 014°16'0 0.0
2015-Feb-25 22:25N 40°51' E 014°16'0 0.0
2015-Feb-25 19:14N 40°51' E 014°16'0 0.0
2015-Feb-25 16:30N 40°51' E 014°16'1 0.8
2015-Feb-25 15:32N 40°50' E 014°17'0 0.4
2015-Feb-25 14:32N 40°50' E 014°17'0 0.0
2015-Feb-25 13:33N 40°50' E 014°17'0 0.0
2015-Feb-25 12:33N 40°50' E 014°17'0 0.0
2015-Feb-25 11:33N 40°50' E 014°17'0 0.0
2015-Feb-25 10:34N 40°50' E 014°17'0 0.0
2015-Feb-25 09:29N 40°50' E 014°17'0 0.0
2015-Feb-25 08:33N 40°50' E 014°17'0 0.0
2015-Feb-25 07:31N 40°50' E 014°17'1 0.5
2015-Feb-25 05:04N 40°51' E 014°16'0 0.0
2015-Feb-25 04:24N 40°51' E 014°16'0 0.0
2015-Feb-25 03:08N 40°51' E 014°16'0 0.0
2015-Feb-25 02:20N 40°51' E 014°16'0 0.0
2015-Feb-24 20:22N 40°51' E 014°16'2 0.1
2015-Feb-24 07:33N 40°49' E 014°17'6 6.2
2015-Feb-24 06:31N 40°43' E 014°17'6 6.0
2015-Feb-24 05:33N 40°37' E 014°15'4 4.1
2015-Feb-24 04:33N 40°33' E 014°14'0 0.0
2015-Feb-24 03:33N 40°33' E 014°14'0 0.0
2015-Feb-24 02:32N 40°33' E 014°14'0 0.0
2015-Feb-24 01:33N 40°33' E 014°14'0 0.0
2015-Feb-24 00:34N 40°33' E 014°14'0 0.0
2015-Feb-23 23:33N 40°33' E 014°14'0 0.0
2015-Feb-23 22:33N 40°33' E 014°14'0 0.0
2015-Feb-23 21:33N 40°33' E 014°14'0 0.0
2015-Feb-23 20:34N 40°33' E 014°14'5 4.6
2015-Feb-23 19:33N 40°38' E 014°15'5 5.4
2015-Feb-23 18:33N 40°43' E 014°17'5 5.5
2015-Feb-23 17:34N 40°49' E 014°18'1 1.2
2015-Feb-23 16:17N 40°50' E 014°17'0 0.0
2015-Feb-23 15:33N 40°50' E 014°17'0 0.0
2015-Feb-23 14:31N 40°50' E 014°17'0 0.0
2015-Feb-23 13:33N 40°50' E 014°17'0 0.0
2015-Feb-23 12:28N 40°50' E 014°17'0 0.0
2015-Feb-23 11:28N 40°50' E 014°17'0 0.0
2015-Feb-23 10:33N 40°50' E 014°17'0 0.1
2015-Feb-23 09:33N 40°50' E 014°17'0 0.0
2015-Feb-23 08:33N 40°50' E 014°17'0 0.0
2015-Feb-23 07:33N 40°50' E 014°17'  

Dump ship's entire track history